sensor_id;sensor_type;location;lat;lon;timestamp;P1;durP1;ratioP1;P2;durP2;ratioP2
20589;SDS011;10453;50.810;12.540;2024-03-08T00:02:33;50.50;;;26.77;;
20589;SDS011;10453;50.810;12.540;2024-03-08T00:06:50;53.90;;;26.20;;
20589;SDS011;10453;50.810;12.540;2024-03-08T00:11:08;50.08;;;26.00;;
20589;SDS011;10453;50.810;12.540;2024-03-08T00:15:25;53.72;;;25.92;;
20589;SDS011;10453;50.810;12.540;2024-03-08T00:19:43;51.70;;;27.00;;
20589;SDS011;10453;50.810;12.540;2024-03-08T00:24:00;52.30;;;27.33;;
20589;SDS011;10453;50.810;12.540;2024-03-08T00:28:18;56.72;;;28.20;;
20589;SDS011;10453;50.810;12.540;2024-03-08T00:32:35;58.60;;;27.30;;
20589;SDS011;10453;50.810;12.540;2024-03-08T00:36:54;55.60;;;27.83;;
20589;SDS011;10453;50.810;12.540;2024-03-08T00:41:12;57.70;;;26.95;;
20589;SDS011;10453;50.810;12.540;2024-03-08T00:45:29;57.78;;;28.35;;
20589;SDS011;10453;50.810;12.540;2024-03-08T00:49:47;57.13;;;28.17;;
20589;SDS011;10453;50.810;12.540;2024-03-08T00:54:04;54.17;;;28.30;;
20589;SDS011;10453;50.810;12.540;2024-03-08T00:58:23;53.83;;;27.08;;
20589;SDS011;10453;50.810;12.540;2024-03-08T01:02:41;53.07;;;26.57;;
20589;SDS011;10453;50.810;12.540;2024-03-08T01:06:58;52.20;;;26.60;;
20589;SDS011;10453;50.810;12.540;2024-03-08T01:15:34;54.70;;;27.85;;
20589;SDS011;10453;50.810;12.540;2024-03-08T01:19:51;53.67;;;27.47;;
20589;SDS011;10453;50.810;12.540;2024-03-08T01:24:09;58.45;;;28.90;;
20589;SDS011;10453;50.810;12.540;2024-03-08T01:28:27;58.53;;;29.38;;
20589;SDS011;10453;50.810;12.540;2024-03-08T01:32:44;55.95;;;27.27;;
20589;SDS011;10453;50.810;12.540;2024-03-08T01:37:03;57.00;;;29.95;;
20589;SDS011;10453;50.810;12.540;2024-03-08T01:41:20;57.75;;;29.60;;
20589;SDS011;10453;50.810;12.540;2024-03-08T01:45:38;53.10;;;28.85;;
20589;SDS011;10453;50.810;12.540;2024-03-08T01:49:55;65.93;;;29.60;;
20589;SDS011;10453;50.810;12.540;2024-03-08T01:54:12;60.63;;;28.27;;
20589;SDS011;10453;50.810;12.540;2024-03-08T01:58:33;58.65;;;28.98;;
20589;SDS011;10453;50.810;12.540;2024-03-08T02:02:54;57.13;;;28.77;;
20589;SDS011;10453;50.810;12.540;2024-03-08T02:07:11;59.67;;;28.92;;
20589;SDS011;10453;50.810;12.540;2024-03-08T02:11:28;58.37;;;29.20;;
20589;SDS011;10453;50.810;12.540;2024-03-08T02:15:49;63.45;;;29.67;;
20589;SDS011;10453;50.810;12.540;2024-03-08T02:20:10;62.45;;;28.80;;
20589;SDS011;10453;50.810;12.540;2024-03-08T02:24:30;61.83;;;28.80;;
20589;SDS011;10453;50.810;12.540;2024-03-08T02:28:48;58.75;;;29.90;;
20589;SDS011;10453;50.810;12.540;2024-03-08T02:33:06;67.40;;;30.75;;
20589;SDS011;10453;50.810;12.540;2024-03-08T02:37:26;59.08;;;28.58;;
20589;SDS011;10453;50.810;12.540;2024-03-08T02:41:45;65.13;;;32.00;;
20589;SDS011;10453;50.810;12.540;2024-03-08T02:46:02;72.40;;;31.73;;
20589;SDS011;10453;50.810;12.540;2024-03-08T02:50:19;62.72;;;31.70;;
20589;SDS011;10453;50.810;12.540;2024-03-08T02:54:39;56.90;;;28.55;;
20589;SDS011;10453;50.810;12.540;2024-03-08T02:58:56;69.88;;;31.08;;
20589;SDS011;10453;50.810;12.540;2024-03-08T03:03:14;66.87;;;30.10;;
20589;SDS011;10453;50.810;12.540;2024-03-08T03:07:32;65.00;;;30.95;;
20589;SDS011;10453;50.810;12.540;2024-03-08T03:11:50;65.72;;;31.15;;
20589;SDS011;10453;50.810;12.540;2024-03-08T03:16:07;63.30;;;31.63;;
20589;SDS011;10453;50.810;12.540;2024-03-08T03:20:27;65.70;;;31.00;;
20589;SDS011;10453;50.810;12.540;2024-03-08T03:24:49;76.50;;;33.10;;
20589;SDS011;10453;50.810;12.540;2024-03-08T03:29:08;73.93;;;33.53;;
20589;SDS011;10453;50.810;12.540;2024-03-08T03:33:26;79.30;;;33.75;;
20589;SDS011;10453;50.810;12.540;2024-03-08T03:37:43;68.75;;;31.98;;
20589;SDS011;10453;50.810;12.540;2024-03-08T03:42:18;66.55;;;30.92;;
20589;SDS011;10453;50.810;12.540;2024-03-08T03:46:36;67.55;;;31.17;;
20589;SDS011;10453;50.810;12.540;2024-03-08T03:50:53;65.03;;;30.40;;
20589;SDS011;10453;50.810;12.540;2024-03-08T03:55:11;64.13;;;30.17;;
20589;SDS011;10453;50.810;12.540;2024-03-08T03:59:30;70.85;;;31.85;;
20589;SDS011;10453;50.810;12.540;2024-03-08T04:03:48;71.78;;;32.92;;
20589;SDS011;10453;50.810;12.540;2024-03-08T04:08:05;79.10;;;33.03;;
20589;SDS011;10453;50.810;12.540;2024-03-08T04:12:23;71.80;;;32.75;;
20589;SDS011;10453;50.810;12.540;2024-03-08T04:16:40;76.32;;;35.13;;
20589;SDS011;10453;50.810;12.540;2024-03-08T04:21:00;73.47;;;32.75;;
20589;SDS011;10453;50.810;12.540;2024-03-08T04:25:18;71.80;;;31.17;;
20589;SDS011;10453;50.810;12.540;2024-03-08T04:29:37;79.28;;;33.90;;
20589;SDS011;10453;50.810;12.540;2024-03-08T04:33:54;72.32;;;32.15;;
20589;SDS011;10453;50.810;12.540;2024-03-08T04:38:12;82.38;;;33.65;;
20589;SDS011;10453;50.810;12.540;2024-03-08T04:42:29;76.03;;;34.00;;
20589;SDS011;10453;50.810;12.540;2024-03-08T04:46:50;77.43;;;33.42;;
20589;SDS011;10453;50.810;12.540;2024-03-08T04:51:07;126.00;;;53.58;;
20589;SDS011;10453;50.810;12.540;2024-03-08T04:55:24;79.97;;;33.83;;
20589;SDS011;10453;50.810;12.540;2024-03-08T04:59:42;83.13;;;34.83;;
20589;SDS011;10453;50.810;12.540;2024-03-08T05:03:59;74.07;;;33.70;;
20589;SDS011;10453;50.810;12.540;2024-03-08T05:08:22;82.60;;;34.92;;
20589;SDS011;10453;50.810;12.540;2024-03-08T05:12:39;79.90;;;34.57;;
20589;SDS011;10453;50.810;12.540;2024-03-08T05:16:56;82.15;;;34.22;;
20589;SDS011;10453;50.810;12.540;2024-03-08T05:21:14;83.53;;;34.67;;
20589;SDS011;10453;50.810;12.540;2024-03-08T05:25:34;88.80;;;36.03;;
20589;SDS011;10453;50.810;12.540;2024-03-08T05:29:51;94.22;;;35.05;;
20589;SDS011;10453;50.810;12.540;2024-03-08T05:34:09;83.18;;;34.05;;
20589;SDS011;10453;50.810;12.540;2024-03-08T05:38:27;84.50;;;33.85;;
20589;SDS011;10453;50.810;12.540;2024-03-08T05:42:45;80.72;;;34.35;;
20589;SDS011;10453;50.810;12.540;2024-03-08T05:47:03;86.97;;;35.13;;
20589;SDS011;10453;50.810;12.540;2024-03-08T05:51:20;84.63;;;34.47;;
20589;SDS011;10453;50.810;12.540;2024-03-08T05:55:40;79.63;;;34.65;;
20589;SDS011;10453;50.810;12.540;2024-03-08T05:59:58;84.32;;;34.60;;
20589;SDS011;10453;50.810;12.540;2024-03-08T06:04:16;79.20;;;34.13;;
20589;SDS011;10453;50.810;12.540;2024-03-08T06:08:34;77.78;;;34.30;;
20589;SDS011;10453;50.810;12.540;2024-03-08T06:12:52;84.27;;;34.07;;
20589;SDS011;10453;50.810;12.540;2024-03-08T06:17:09;83.18;;;33.88;;
20589;SDS011;10453;50.810;12.540;2024-03-08T06:21:28;84.00;;;36.33;;
20589;SDS011;10453;50.810;12.540;2024-03-08T06:25:45;92.47;;;36.95;;
20589;SDS011;10453;50.810;12.540;2024-03-08T06:30:02;86.75;;;37.13;;
20589;SDS011;10453;50.810;12.540;2024-03-08T06:34:21;85.88;;;37.05;;
20589;SDS011;10453;50.810;12.540;2024-03-08T06:38:39;81.17;;;36.07;;
20589;SDS011;10453;50.810;12.540;2024-03-08T06:42:59;80.20;;;34.95;;
20589;SDS011;10453;50.810;12.540;2024-03-08T06:47:16;85.03;;;36.28;;
20589;SDS011;10453;50.810;12.540;2024-03-08T06:51:34;89.32;;;37.22;;
20589;SDS011;10453;50.810;12.540;2024-03-08T06:55:51;91.37;;;39.57;;
20589;SDS011;10453;50.810;12.540;2024-03-08T07:00:09;84.37;;;38.70;;
20589;SDS011;10453;50.810;12.540;2024-03-08T07:04:28;95.13;;;41.58;;
20589;SDS011;10453;50.810;12.540;2024-03-08T07:08:46;94.22;;;39.67;;
20589;SDS011;10453;50.810;12.540;2024-03-08T07:13:05;87.20;;;38.92;;
20589;SDS011;10453;50.810;12.540;2024-03-08T07:17:22;88.10;;;40.33;;
20589;SDS011;10453;50.810;12.540;2024-03-08T07:21:41;87.35;;;39.40;;
20589;SDS011;10453;50.810;12.540;2024-03-08T07:25:58;87.43;;;39.87;;
20589;SDS011;10453;50.810;12.540;2024-03-08T07:30:17;85.43;;;40.75;;
20589;SDS011;10453;50.810;12.540;2024-03-08T07:34:53;81.63;;;40.47;;
20589;SDS011;10453;50.810;12.540;2024-03-08T07:39:12;93.65;;;43.85;;
20589;SDS011;10453;50.810;12.540;2024-03-08T07:43:30;93.78;;;45.75;;
20589;SDS011;10453;50.810;12.540;2024-03-08T07:47:47;93.87;;;46.43;;
20589;SDS011;10453;50.810;12.540;2024-03-08T07:52:05;89.97;;;45.00;;
20589;SDS011;10453;50.810;12.540;2024-03-08T07:56:24;89.00;;;44.05;;
20589;SDS011;10453;50.810;12.540;2024-03-08T08:00:42;87.25;;;45.38;;
20589;SDS011;10453;50.810;12.540;2024-03-08T08:05:00;86.53;;;43.95;;
20589;SDS011;10453;50.810;12.540;2024-03-08T08:09:17;79.33;;;41.37;;
20589;SDS011;10453;50.810;12.540;2024-03-08T08:13:45;70.93;;;38.40;;
20589;SDS011;10453;50.810;12.540;2024-03-08T08:18:02;73.37;;;37.23;;
20589;SDS011;10453;50.810;12.540;2024-03-08T08:22:23;73.72;;;36.17;;
20589;SDS011;10453;50.810;12.540;2024-03-08T08:26:40;70.32;;;36.65;;
20589;SDS011;10453;50.810;12.540;2024-03-08T08:30:57;64.73;;;35.47;;
20589;SDS011;10453;50.810;12.540;2024-03-08T08:39:35;55.72;;;30.33;;
20589;SDS011;10453;50.810;12.540;2024-03-08T08:43:52;52.15;;;28.52;;
20589;SDS011;10453;50.810;12.540;2024-03-08T08:48:24;46.60;;;27.98;;
20589;SDS011;10453;50.810;12.540;2024-03-08T08:52:42;41.40;;;24.73;;
20589;SDS011;10453;50.810;12.540;2024-03-08T08:57:02;39.67;;;24.52;;
20589;SDS011;10453;50.810;12.540;2024-03-08T09:01:24;38.90;;;23.58;;
20589;SDS011;10453;50.810;12.540;2024-03-08T09:05:42;36.78;;;23.33;;
20589;SDS011;10453;50.810;12.540;2024-03-08T09:10:02;38.88;;;23.40;;
20589;SDS011;10453;50.810;12.540;2024-03-08T09:14:33;46.03;;;24.30;;
20589;SDS011;10453;50.810;12.540;2024-03-08T09:18:51;39.22;;;23.70;;
20589;SDS011;10453;50.810;12.540;2024-03-08T09:23:08;37.70;;;22.63;;
20589;SDS011;10453;50.810;12.540;2024-03-08T09:27:26;36.78;;;22.02;;
20589;SDS011;10453;50.810;12.540;2024-03-08T09:31:44;39.03;;;23.33;;
20589;SDS011;10453;50.810;12.540;2024-03-08T09:36:03;35.50;;;22.30;;
20589;SDS011;10453;50.810;12.540;2024-03-08T09:40:21;42.47;;;22.73;;
20589;SDS011;10453;50.810;12.540;2024-03-08T09:44:47;37.72;;;22.42;;
20589;SDS011;10453;50.810;12.540;2024-03-08T09:49:05;34.17;;;21.77;;
20589;SDS011;10453;50.810;12.540;2024-03-08T09:53:22;37.85;;;22.35;;
20589;SDS011;10453;50.810;12.540;2024-03-08T09:57:39;31.65;;;20.20;;
20589;SDS011;10453;50.810;12.540;2024-03-08T10:01:59;34.28;;;21.42;;
20589;SDS011;10453;50.810;12.540;2024-03-08T10:06:22;29.83;;;20.17;;
20589;SDS011;10453;50.810;12.540;2024-03-08T10:10:40;31.73;;;18.77;;
20589;SDS011;10453;50.810;12.540;2024-03-08T10:14:58;28.58;;;18.80;;
20589;SDS011;10453;50.810;12.540;2024-03-08T10:19:16;32.60;;;20.73;;
20589;SDS011;10453;50.810;12.540;2024-03-08T10:23:34;32.80;;;21.25;;
20589;SDS011;10453;50.810;12.540;2024-03-08T10:27:51;31.40;;;20.48;;
20589;SDS011;10453;50.810;12.540;2024-03-08T10:32:08;29.88;;;20.20;;
20589;SDS011;10453;50.810;12.540;2024-03-08T10:36:27;26.67;;;19.53;;
20589;SDS011;10453;50.810;12.540;2024-03-08T10:40:45;28.27;;;20.03;;
20589;SDS011;10453;50.810;12.540;2024-03-08T10:45:05;31.73;;;19.92;;
20589;SDS011;10453;50.810;12.540;2024-03-08T10:49:30;27.90;;;20.13;;
20589;SDS011;10453;50.810;12.540;2024-03-08T10:53:52;27.70;;;20.05;;
20589;SDS011;10453;50.810;12.540;2024-03-08T10:58:11;28.83;;;20.15;;
20589;SDS011;10453;50.810;12.540;2024-03-08T11:02:29;25.33;;;19.52;;
20589;SDS011;10453;50.810;12.540;2024-03-08T11:06:47;27.65;;;19.25;;
20589;SDS011;10453;50.810;12.540;2024-03-08T11:11:24;27.73;;;19.65;;
20589;SDS011;10453;50.810;12.540;2024-03-08T11:15:51;23.85;;;18.02;;
20589;SDS011;10453;50.810;12.540;2024-03-08T11:20:10;27.02;;;18.42;;
20589;SDS011;10453;50.810;12.540;2024-03-08T11:24:37;27.73;;;19.08;;
20589;SDS011;10453;50.810;12.540;2024-03-08T11:33:45;23.20;;;17.45;;
20589;SDS011;10453;50.810;12.540;2024-03-08T11:38:04;26.35;;;18.38;;
20589;SDS011;10453;50.810;12.540;2024-03-08T11:42:21;24.98;;;18.27;;
20589;SDS011;10453;50.810;12.540;2024-03-08T11:46:39;23.15;;;17.52;;
20589;SDS011;10453;50.810;12.540;2024-03-08T11:51:01;25.88;;;18.02;;
20589;SDS011;10453;50.810;12.540;2024-03-08T11:55:20;25.35;;;17.45;;
20589;SDS011;10453;50.810;12.540;2024-03-08T11:59:39;21.73;;;17.10;;
20589;SDS011;10453;50.810;12.540;2024-03-08T12:03:57;23.88;;;17.33;;
20589;SDS011;10453;50.810;12.540;2024-03-08T12:08:17;24.50;;;17.92;;
20589;SDS011;10453;50.810;12.540;2024-03-08T12:12:34;22.48;;;17.13;;
20589;SDS011;10453;50.810;12.540;2024-03-08T12:16:52;20.42;;;15.77;;
20589;SDS011;10453;50.810;12.540;2024-03-08T12:21:10;24.80;;;17.02;;
20589;SDS011;10453;50.810;12.540;2024-03-08T12:25:32;22.05;;;16.90;;
20589;SDS011;10453;50.810;12.540;2024-03-08T12:29:53;20.45;;;15.48;;
20589;SDS011;10453;50.810;12.540;2024-03-08T12:38:31;23.60;;;16.97;;
20589;SDS011;10453;50.810;12.540;2024-03-08T12:42:49;22.93;;;15.67;;
20589;SDS011;10453;50.810;12.540;2024-03-08T12:47:06;20.88;;;15.98;;
20589;SDS011;10453;50.810;12.540;2024-03-08T12:51:25;26.27;;;16.15;;
20589;SDS011;10453;50.810;12.540;2024-03-08T12:55:42;21.17;;;15.90;;
20589;SDS011;10453;50.810;12.540;2024-03-08T13:00:00;18.20;;;14.13;;
20589;SDS011;10453;50.810;12.540;2024-03-08T13:04:19;19.75;;;15.07;;
20589;SDS011;10453;50.810;12.540;2024-03-08T13:08:38;19.42;;;14.90;;
20589;SDS011;10453;50.810;12.540;2024-03-08T13:12:56;23.30;;;16.75;;
20589;SDS011;10453;50.810;12.540;2024-03-08T13:17:14;21.00;;;15.50;;
20589;SDS011;10453;50.810;12.540;2024-03-08T13:21:31;22.30;;;14.73;;
20589;SDS011;10453;50.810;12.540;2024-03-08T13:25:49;19.63;;;15.05;;
20589;SDS011;10453;50.810;12.540;2024-03-08T13:30:08;26.13;;;15.93;;
20589;SDS011;10453;50.810;12.540;2024-03-08T13:34:35;30.05;;;16.38;;
20589;SDS011;10453;50.810;12.540;2024-03-08T13:38:52;23.40;;;16.67;;
20589;SDS011;10453;50.810;12.540;2024-03-08T13:43:10;24.52;;;16.42;;
20589;SDS011;10453;50.810;12.540;2024-03-08T13:47:27;20.98;;;14.93;;
20589;SDS011;10453;50.810;12.540;2024-03-08T13:51:44;20.58;;;15.15;;
20589;SDS011;10453;50.810;12.540;2024-03-08T13:56:02;20.77;;;15.43;;
20589;SDS011;10453;50.810;12.540;2024-03-08T14:00:20;21.25;;;15.57;;
20589;SDS011;10453;50.810;12.540;2024-03-08T14:04:39;26.98;;;18.02;;
20589;SDS011;10453;50.810;12.540;2024-03-08T14:08:58;20.58;;;15.80;;
20589;SDS011;10453;50.810;12.540;2024-03-08T14:13:15;21.30;;;14.57;;
20589;SDS011;10453;50.810;12.540;2024-03-08T14:17:35;23.77;;;16.30;;
20589;SDS011;10453;50.810;12.540;2024-03-08T14:21:53;25.08;;;17.27;;
20589;SDS011;10453;50.810;12.540;2024-03-08T14:26:10;26.60;;;17.65;;
20589;SDS011;10453;50.810;12.540;2024-03-08T14:30:28;25.57;;;18.20;;
20589;SDS011;10453;50.810;12.540;2024-03-08T14:34:52;26.42;;;17.65;;
20589;SDS011;10453;50.810;12.540;2024-03-08T14:39:12;30.30;;;18.23;;
20589;SDS011;10453;50.810;12.540;2024-03-08T14:43:29;30.30;;;20.20;;
20589;SDS011;10453;50.810;12.540;2024-03-08T14:47:50;30.45;;;20.90;;
20589;SDS011;10453;50.810;12.540;2024-03-08T14:52:08;32.92;;;21.35;;
20589;SDS011;10453;50.810;12.540;2024-03-08T14:56:44;29.85;;;21.95;;
20589;SDS011;10453;50.810;12.540;2024-03-08T15:01:02;28.53;;;20.07;;
20589;SDS011;10453;50.810;12.540;2024-03-08T15:05:19;31.35;;;21.67;;
20589;SDS011;10453;50.810;12.540;2024-03-08T15:09:43;31.63;;;22.35;;
20589;SDS011;10453;50.810;12.540;2024-03-08T15:14:00;31.50;;;21.38;;
20589;SDS011;10453;50.810;12.540;2024-03-08T15:18:18;33.07;;;23.20;;
20589;SDS011;10453;50.810;12.540;2024-03-08T15:22:36;36.33;;;24.20;;
20589;SDS011;10453;50.810;12.540;2024-03-08T15:26:56;39.20;;;25.25;;
20589;SDS011;10453;50.810;12.540;2024-03-08T15:31:14;32.85;;;22.85;;
20589;SDS011;10453;50.810;12.540;2024-03-08T15:35:32;36.45;;;23.83;;
20589;SDS011;10453;50.810;12.540;2024-03-08T15:39:49;36.10;;;22.58;;
20589;SDS011;10453;50.810;12.540;2024-03-08T15:44:07;32.22;;;21.40;;
20589;SDS011;10453;50.810;12.540;2024-03-08T15:48:27;35.22;;;22.55;;
20589;SDS011;10453;50.810;12.540;2024-03-08T15:52:44;38.15;;;25.30;;
20589;SDS011;10453;50.810;12.540;2024-03-08T15:57:04;33.85;;;21.77;;
20589;SDS011;10453;50.810;12.540;2024-03-08T16:01:25;36.97;;;22.20;;
20589;SDS011;10453;50.810;12.540;2024-03-08T16:05:42;33.92;;;20.92;;
20589;SDS011;10453;50.810;12.540;2024-03-08T16:10:02;33.53;;;21.52;;
20589;SDS011;10453;50.810;12.540;2024-03-08T16:14:21;32.22;;;21.95;;
20589;SDS011;10453;50.810;12.540;2024-03-08T16:18:38;32.13;;;20.90;;
20589;SDS011;10453;50.810;12.540;2024-03-08T16:22:56;34.33;;;21.30;;
20589;SDS011;10453;50.810;12.540;2024-03-08T16:27:14;35.17;;;22.08;;
20589;SDS011;10453;50.810;12.540;2024-03-08T16:31:33;41.42;;;23.10;;
20589;SDS011;10453;50.810;12.540;2024-03-08T16:35:50;34.95;;;21.58;;
20589;SDS011;10453;50.810;12.540;2024-03-08T16:40:09;36.67;;;23.77;;
20589;SDS011;10453;50.810;12.540;2024-03-08T16:44:31;42.17;;;23.40;;
20589;SDS011;10453;50.810;12.540;2024-03-08T16:48:49;36.78;;;21.85;;
20589;SDS011;10453;50.810;12.540;2024-03-08T16:53:06;31.08;;;19.58;;
20589;SDS011;10453;50.810;12.540;2024-03-08T16:57:24;32.45;;;19.65;;
20589;SDS011;10453;50.810;12.540;2024-03-08T17:01:42;34.67;;;21.92;;
20589;SDS011;10453;50.810;12.540;2024-03-08T17:05:59;31.10;;;20.48;;
20589;SDS011;10453;50.810;12.540;2024-03-08T17:10:23;36.65;;;20.73;;
20589;SDS011;10453;50.810;12.540;2024-03-08T17:14:42;36.40;;;21.10;;
20589;SDS011;10453;50.810;12.540;2024-03-08T17:18:59;31.80;;;20.03;;
20589;SDS011;10453;50.810;12.540;2024-03-08T17:23:19;32.28;;;19.27;;
20589;SDS011;10453;50.810;12.540;2024-03-08T17:27:38;29.02;;;19.10;;
20589;SDS011;10453;50.810;12.540;2024-03-08T17:31:55;30.17;;;18.83;;
20589;SDS011;10453;50.810;12.540;2024-03-08T17:36:13;28.42;;;18.38;;
20589;SDS011;10453;50.810;12.540;2024-03-08T17:40:33;30.23;;;20.35;;
20589;SDS011;10453;50.810;12.540;2024-03-08T17:44:52;35.53;;;20.75;;
20589;SDS011;10453;50.810;12.540;2024-03-08T17:49:11;30.88;;;19.50;;
20589;SDS011;10453;50.810;12.540;2024-03-08T17:57:47;34.90;;;21.17;;
20589;SDS011;10453;50.810;12.540;2024-03-08T18:02:05;29.70;;;18.25;;
20589;SDS011;10453;50.810;12.540;2024-03-08T18:06:23;34.40;;;20.30;;
20589;SDS011;10453;50.810;12.540;2024-03-08T18:10:43;27.83;;;18.70;;
20589;SDS011;10453;50.810;12.540;2024-03-08T18:15:00;33.05;;;20.33;;
20589;SDS011;10453;50.810;12.540;2024-03-08T18:19:18;33.17;;;20.70;;
20589;SDS011;10453;50.810;12.540;2024-03-08T18:23:36;39.85;;;26.10;;
20589;SDS011;10453;50.810;12.540;2024-03-08T18:27:54;28.70;;;17.70;;
20589;SDS011;10453;50.810;12.540;2024-03-08T18:32:14;28.38;;;17.73;;
20589;SDS011;10453;50.810;12.540;2024-03-08T18:36:31;33.58;;;18.77;;
20589;SDS011;10453;50.810;12.540;2024-03-08T18:40:50;26.95;;;17.67;;
20589;SDS011;10453;50.810;12.540;2024-03-08T18:45:09;26.08;;;16.40;;
20589;SDS011;10453;50.810;12.540;2024-03-08T18:53:44;26.55;;;16.98;;
20589;SDS011;10453;50.810;12.540;2024-03-08T18:58:02;32.08;;;18.98;;
20589;SDS011;10453;50.810;12.540;2024-03-08T19:02:20;31.20;;;20.00;;
20589;SDS011;10453;50.810;12.540;2024-03-08T19:06:40;26.60;;;16.75;;
20589;SDS011;10453;50.810;12.540;2024-03-08T19:10:58;27.92;;;17.45;;
20589;SDS011;10453;50.810;12.540;2024-03-08T19:15:16;24.27;;;16.33;;
20589;SDS011;10453;50.810;12.540;2024-03-08T19:19:36;24.55;;;16.25;;
20589;SDS011;10453;50.810;12.540;2024-03-08T19:23:54;23.85;;;15.20;;
20589;SDS011;10453;50.810;12.540;2024-03-08T19:28:12;24.85;;;15.00;;
20589;SDS011;10453;50.810;12.540;2024-03-08T19:32:30;26.77;;;15.27;;
20589;SDS011;10453;50.810;12.540;2024-03-08T19:36:48;25.80;;;14.90;;
20589;SDS011;10453;50.810;12.540;2024-03-08T19:41:05;24.70;;;15.18;;
20589;SDS011;10453;50.810;12.540;2024-03-08T19:45:23;25.20;;;15.05;;
20589;SDS011;10453;50.810;12.540;2024-03-08T19:49:42;23.17;;;14.60;;
20589;SDS011;10453;50.810;12.540;2024-03-08T19:54:00;23.88;;;14.82;;
20589;SDS011;10453;50.810;12.540;2024-03-08T19:58:18;24.30;;;14.43;;
20589;SDS011;10453;50.810;12.540;2024-03-08T20:02:38;23.70;;;14.45;;
20589;SDS011;10453;50.810;12.540;2024-03-08T20:06:57;21.73;;;14.05;;
20589;SDS011;10453;50.810;12.540;2024-03-08T20:11:14;23.25;;;14.63;;
20589;SDS011;10453;50.810;12.540;2024-03-08T20:15:32;23.50;;;14.88;;
20589;SDS011;10453;50.810;12.540;2024-03-08T20:19:51;24.90;;;15.18;;
20589;SDS011;10453;50.810;12.540;2024-03-08T20:24:09;24.77;;;14.88;;
20589;SDS011;10453;50.810;12.540;2024-03-08T20:28:28;24.08;;;15.70;;
20589;SDS011;10453;50.810;12.540;2024-03-08T20:32:49;24.38;;;16.25;;
20589;SDS011;10453;50.810;12.540;2024-03-08T20:37:10;26.10;;;16.60;;
20589;SDS011;10453;50.810;12.540;2024-03-08T20:41:30;27.33;;;15.75;;
20589;SDS011;10453;50.810;12.540;2024-03-08T20:50:06;26.95;;;16.08;;
20589;SDS011;10453;50.810;12.540;2024-03-08T20:54:25;27.27;;;16.20;;
20589;SDS011;10453;50.810;12.540;2024-03-08T20:58:42;27.42;;;16.75;;
20589;SDS011;10453;50.810;12.540;2024-03-08T21:07:22;29.10;;;17.15;;
20589;SDS011;10453;50.810;12.540;2024-03-08T21:11:39;32.50;;;17.45;;
20589;SDS011;10453;50.810;12.540;2024-03-08T21:15:57;30.33;;;18.57;;
20589;SDS011;10453;50.810;12.540;2024-03-08T21:20:16;30.08;;;18.20;;
20589;SDS011;10453;50.810;12.540;2024-03-08T21:24:34;31.38;;;19.08;;
20589;SDS011;10453;50.810;12.540;2024-03-08T21:28:51;32.50;;;18.83;;
20589;SDS011;10453;50.810;12.540;2024-03-08T21:33:09;31.00;;;19.17;;
20589;SDS011;10453;50.810;12.540;2024-03-08T21:37:31;33.25;;;18.83;;
20589;SDS011;10453;50.810;12.540;2024-03-08T21:41:48;32.13;;;20.08;;
20589;SDS011;10453;50.810;12.540;2024-03-08T21:46:05;31.60;;;19.27;;
20589;SDS011;10453;50.810;12.540;2024-03-08T21:50:23;38.05;;;20.38;;
20589;SDS011;10453;50.810;12.540;2024-03-08T21:54:40;39.65;;;22.33;;
20589;SDS011;10453;50.810;12.540;2024-03-08T21:58:57;36.83;;;20.23;;
20589;SDS011;10453;50.810;12.540;2024-03-08T22:03:18;32.88;;;19.35;;
20589;SDS011;10453;50.810;12.540;2024-03-08T22:07:38;34.88;;;20.77;;
20589;SDS011;10453;50.810;12.540;2024-03-08T22:11:55;32.88;;;19.95;;
20589;SDS011;10453;50.810;12.540;2024-03-08T22:16:14;32.72;;;19.52;;
20589;SDS011;10453;50.810;12.540;2024-03-08T22:20:31;29.35;;;18.27;;
20589;SDS011;10453;50.810;12.540;2024-03-08T22:24:49;31.38;;;18.30;;
20589;SDS011;10453;50.810;12.540;2024-03-08T22:29:10;31.02;;;18.75;;
20589;SDS011;10453;50.810;12.540;2024-03-08T22:33:28;32.53;;;18.43;;
20589;SDS011;10453;50.810;12.540;2024-03-08T22:37:46;31.02;;;18.75;;
20589;SDS011;10453;50.810;12.540;2024-03-08T22:42:04;29.63;;;17.17;;
20589;SDS011;10453;50.810;12.540;2024-03-08T22:46:25;29.70;;;17.15;;
20589;SDS011;10453;50.810;12.540;2024-03-08T22:50:42;28.40;;;17.55;;
20589;SDS011;10453;50.810;12.540;2024-03-08T22:54:59;29.60;;;17.10;;
20589;SDS011;10453;50.810;12.540;2024-03-08T22:59:17;26.52;;;16.20;;
20589;SDS011;10453;50.810;12.540;2024-03-08T23:03:37;29.85;;;16.08;;
20589;SDS011;10453;50.810;12.540;2024-03-08T23:07:55;26.02;;;15.45;;
20589;SDS011;10453;50.810;12.540;2024-03-08T23:12:18;26.15;;;15.43;;
20589;SDS011;10453;50.810;12.540;2024-03-08T23:16:35;31.17;;;16.07;;
20589;SDS011;10453;50.810;12.540;2024-03-08T23:20:53;26.42;;;16.05;;
20589;SDS011;10453;50.810;12.540;2024-03-08T23:25:13;27.10;;;15.18;;
20589;SDS011;10453;50.810;12.540;2024-03-08T23:29:33;26.33;;;14.95;;
20589;SDS011;10453;50.810;12.540;2024-03-08T23:33:50;24.08;;;14.82;;
20589;SDS011;10453;50.810;12.540;2024-03-08T23:38:08;25.45;;;14.82;;
20589;SDS011;10453;50.810;12.540;2024-03-08T23:42:26;22.67;;;14.23;;
20589;SDS011;10453;50.810;12.540;2024-03-08T23:46:45;26.30;;;15.45;;
20589;SDS011;10453;50.810;12.540;2024-03-08T23:51:03;24.90;;;13.75;;
20589;SDS011;10453;50.810;12.540;2024-03-08T23:55:23;27.73;;;18.13;;
20589;SDS011;10453;50.810;12.540;2024-03-08T23:59:44;21.42;;;13.90;;
